Time;durP1;ratioP1;P1;durP2;ratioP2;P2;SDS_P1;SDS_P2;PMS_P1;PMS_P2;Temp;Humidity;BMP_temperature;BMP_pressure;BME280_temperature;BME280_humidity;BME280_pressure;Samples;Min_cycle;Max_cycle;Signal;HPM_P1;HPM_P2
2023/01/22 00:01:33;;;;;;;3.97;3.40;;;;;;;16.62;40.88;103313.19;5027091;28;20022;-58
2023/01/22 00:03:59;;;;;;;5.32;3.53;;;;;;;16.58;40.79;103298.22;5025860;28;20033;-57
2023/01/22 00:06:24;;;;;;;4.80;3.60;;;;;;;16.60;40.92;103307.03;5026331;28;20037;-56
2023/01/22 00:08:50;;;;;;;4.75;4.22;;;;;;;16.61;40.82;103301.59;5026154;28;20098;-57
2023/01/22 00:11:16;;;;;;;4.53;4.13;;;;;;;16.58;40.79;103307.13;5026457;28;20034;-53
2023/01/22 00:13:42;;;;;;;3.83;3.42;;;;;;;16.61;40.84;103311.44;5026585;28;20032;-56
2023/01/22 00:16:08;;;;;;;3.47;3.10;;;;;;;16.61;41.02;103306.94;5026694;28;20049;-55
2023/01/22 00:18:34;;;;;;;4.28;3.63;;;;;;;16.59;40.79;103306.16;5026085;28;20133;-57
2023/01/22 00:20:59;;;;;;;3.67;3.15;;;;;;;16.62;40.84;103307.81;5026654;28;20482;-56
2023/01/22 00:23:25;;;;;;;4.70;3.30;;;;;;;16.61;40.70;103312.31;5025835;28;20117;-57
2023/01/22 00:26:05;;;;;;;4.43;3.47;;;;;;;16.61;40.88;103304.28;5026432;28;20034;-57
2023/01/22 00:28:30;;;;;;;3.88;3.35;;;;;;;16.59;40.89;103300.78;5026373;28;20033;-54
2023/01/22 00:30:59;;;;;;;4.28;3.80;;;;;;;16.61;40.78;103300.69;5026335;28;20030;-57
2023/01/22 00:33:25;;;;;;;4.05;3.15;;;;;;;16.59;40.71;103300.78;5026258;28;20052;-57
2023/01/22 00:35:51;;;;;;;3.75;3.17;;;;;;;16.53;40.63;103290.44;5026101;28;20030;-55
2023/01/22 00:38:16;;;;;;;3.28;2.97;;;;;;;16.61;40.64;103289.94;5026178;28;20061;-56
2023/01/22 00:40:41;;;;;;;3.17;2.88;;;;;;;16.60;40.71;103291.78;5026133;28;20050;-55
2023/01/22 00:43:06;;;;;;;3.53;3.22;;;;;;;16.59;40.78;103284.69;5026391;28;20030;-57
2023/01/22 00:45:32;;;;;;;3.83;2.60;;;;;;;16.60;40.82;103285.53;5008577;28;20467;-57
2023/01/22 00:47:58;;;;;;;4.20;3.30;;;;;;;16.59;40.96;103278.44;5026137;28;20040;-55
2023/01/22 00:50:23;;;;;;;3.72;3.10;;;;;;;16.58;40.89;103285.66;5026060;28;20029;-57
2023/01/22 00:52:48;;;;;;;3.67;3.35;;;;;;;16.60;40.70;103288.22;5025676;28;20524;-57
2023/01/22 00:55:14;;;;;;;3.08;2.78;;;;;;;16.60;40.71;103281.03;5026238;28;20112;-55
2023/01/22 00:57:39;;;;;;;3.35;2.97;;;;;;;16.58;40.77;103282.97;5025742;28;20026;-56
2023/01/22 01:00:05;;;;;;;3.58;2.90;;;;;;;16.53;40.87;103271.66;5025834;28;20124;-55
2023/01/22 01:02:30;;;;;;;3.42;3.13;;;;;;;16.59;40.78;103286.50;5025715;28;20025;-56
2023/01/22 01:04:56;;;;;;;4.43;3.17;;;;;;;16.49;40.67;103270.97;5025449;28;20026;-55
2023/01/22 01:07:21;;;;;;;3.92;2.78;;;;;;;16.58;40.66;103282.97;5025733;28;20030;-56
2023/01/22 01:09:46;;;;;;;3.88;3.58;;;;;;;16.58;40.64;103279.41;5025702;28;20113;-55
2023/01/22 01:12:12;;;;;;;3.72;2.88;;;;;;;16.57;40.77;103281.25;5025714;28;20544;-53
2023/01/22 01:14:37;;;;;;;3.38;2.97;;;;;;;16.57;40.78;103291.97;5025771;28;20026;-56
2023/01/22 01:17:02;;;;;;;3.85;3.13;;;;;;;16.57;40.70;103283.94;5025919;28;20044;-57
2023/01/22 01:19:28;;;;;;;3.10;2.78;;;;;;;16.58;40.81;103279.41;5008212;28;20025;-52
2023/01/22 01:21:53;;;;;;;3.20;2.90;;;;;;;16.57;40.60;103288.44;5012336;28;20030;-55
2023/01/22 01:24:18;;;;;;;3.97;2.70;;;;;;;16.57;40.74;103291.13;5023463;28;20058;-57
2023/01/22 01:26:43;;;;;;;3.33;2.70;;;;;;;16.57;40.60;103283.06;5025249;28;20034;-57
2023/01/22 01:29:10;;;;;;;3.80;3.25;;;;;;;16.57;40.84;103285.75;5024488;28;20048;-52
2023/01/22 01:31:36;;;;;;;2.95;2.65;;;;;;;16.57;40.90;103283.06;5025418;28;20511;-57
2023/01/22 01:34:02;;;;;;;3.13;2.83;;;;;;;16.56;40.75;103289.38;5025166;28;20071;-57
2023/01/22 01:36:28;;;;;;;3.38;2.60;;;;;;;16.56;40.75;103292.91;5025224;28;20030;-52
2023/01/22 01:38:56;;;;;;;3.42;2.75;;;;;;;16.55;40.72;103288.50;5025045;28;20026;-56
2023/01/22 01:41:24;;;;;;;4.88;3.22;;;;;;;16.54;40.72;103285.94;5024986;28;20130;-57
2023/01/22 01:44:08;;;;;;;3.30;2.97;;;;;;;16.54;40.73;103283.25;5025175;28;20030;-54
2023/01/22 01:46:37;;;;;;;3.08;2.78;;;;;;;16.56;40.65;103279.50;5024988;28;20026;-53
2023/01/22 01:49:03;;;;;;;3.97;2.90;;;;;;;16.55;40.88;103280.47;5025012;28;20085;-55
2023/01/22 01:51:33;;;;;;;3.10;2.80;;;;;;;16.56;40.68;103284.88;5007475;28;20026;-58
2023/01/22 01:53:59;;;;;;;3.05;2.75;;;;;;;16.56;40.65;103278.63;5007233;28;20033;-55
2023/01/22 01:56:48;;;;;;;2.65;2.45;;;;;;;16.53;40.72;103271.66;5007483;28;20025;-57
2023/01/22 01:59:15;;;;;;;3.08;2.65;;;;;;;16.56;40.58;103278.63;5007465;28;20167;-57
2023/01/22 02:01:41;;;;;;;4.07;2.30;;;;;;;16.55;40.88;103275.09;5007082;28;20029;-57
2023/01/22 02:04:06;;;;;;;2.88;2.58;;;;;;;16.55;40.80;103272.41;5006838;28;20050;-54
2023/01/22 02:06:32;;;;;;;2.80;2.60;;;;;;;16.53;40.69;103266.28;5007116;28;20088;-56
2023/01/22 02:08:59;;;;;;;3.30;2.60;;;;;;;16.54;40.78;103267.13;5024715;28;20094;-54
2023/01/22 02:11:24;;;;;;;2.85;2.55;;;;;;;16.50;40.83;103258.41;5024873;28;20549;-56
2023/01/22 02:14:05;;;;;;;3.15;2.80;;;;;;;16.50;40.58;103251.22;5007320;28;20038;-55
2023/01/22 02:16:30;;;;;;;3.10;2.80;;;;;;;16.54;40.69;103253.72;5007134;28;20034;-57
2023/01/22 02:18:55;;;;;;;3.15;2.45;;;;;;;16.48;40.59;103260.31;5024511;28;20030;-57
2023/01/22 02:21:31;;;;;;;2.60;2.40;;;;;;;16.53;40.81;103260.91;5016109;28;20014;-57
2023/01/22 02:23:57;;;;;;;2.70;2.50;;;;;;;16.53;40.88;103252.84;5021580;28;20478;-55
2023/01/22 02:26:23;;;;;;;3.70;2.75;;;;;;;16.50;40.81;103250.34;5024652;28;20034;-57
2023/01/22 02:28:48;;;;;;;2.85;2.55;;;;;;;16.52;40.75;103248.41;5024700;28;20036;-55
2023/01/22 02:31:13;;;;;;;2.20;2.00;;;;;;;16.53;40.74;103260.03;5024713;28;20025;-57
2023/01/22 02:33:39;;;;;;;2.50;2.30;;;;;;;16.51;40.73;103260.13;5024031;28;20038;-57
2023/01/22 02:36:04;;;;;;;2.85;2.30;;;;;;;16.50;40.65;103256.56;5024650;28;20069;-56
2023/01/22 02:38:29;;;;;;;2.70;2.20;;;;;;;16.52;40.79;103266.34;5024287;28;20026;-56
2023/01/22 02:40:55;;;;;;;3.67;2.60;;;;;;;16.51;40.66;103262.81;5025543;28;20066;-50
2023/01/22 02:43:20;;;;;;;2.53;2.30;;;;;;;16.49;40.62;103264.75;5028538;28;20101;-56
2023/01/22 02:45:45;;;;;;;2.53;2.30;;;;;;;16.50;40.63;103270.00;5011067;28;20056;-54
2023/01/22 02:48:11;;;;;;;2.90;2.60;;;;;;;16.52;40.63;103277.09;5028197;28;20036;-56
2023/01/22 02:50:36;;;;;;;2.42;2.08;;;;;;;16.49;40.76;103275.47;5028301;28;20060;-57
2023/01/22 02:53:01;;;;;;;3.38;2.60;;;;;;;16.50;40.71;103267.31;5028114;28;20025;-57
2023/01/22 02:55:27;;;;;;;3.05;2.40;;;;;;;16.53;40.70;103270.78;5028404;28;20034;-56
2023/01/22 02:57:52;;;;;;;3.65;2.20;;;;;;;16.50;40.67;103270.00;5028058;28;20511;-57
2023/01/22 03:00:18;;;;;;;3.33;2.60;;;;;;;16.52;40.61;103269.03;5028205;28;20069;-57
2023/01/22 03:02:43;;;;;;;2.85;2.03;;;;;;;16.50;40.61;103261.94;5028097;28;20018;-57
2023/01/22 03:05:08;;;;;;;3.45;2.20;;;;;;;16.50;40.63;103263.78;5027842;28;20391;-54
2023/01/22 03:07:43;;;;;;;2.30;2.10;;;;;;;16.49;40.69;103246.81;5028086;28;20109;-55
2023/01/22 03:10:18;;;;;;;2.33;2.13;;;;;;;16.50;40.71;103247.66;5028172;28;20058;-57
2023/01/22 03:21:14;;;;;;;2.50;2.30;;;;;;;16.49;40.69;103259.38;5022425;28;20033;-57
2023/01/22 03:23:40;;;;;;;2.90;2.25;;;;;;;16.48;40.65;103261.19;5021653;28;20026;-54
2023/01/22 03:26:05;;;;;;;2.95;2.40;;;;;;;16.48;40.71;103254.94;5027383;28;20030;-57
2023/01/22 03:28:31;;;;;;;3.10;2.50;;;;;;;16.46;40.58;103249.66;5027678;28;20104;-57
2023/01/22 03:30:56;;;;;;;2.92;2.63;;;;;;;16.42;40.72;103233.84;5027485;28;20037;-57
2023/01/22 03:33:21;;;;;;;3.67;2.33;;;;;;;16.47;40.67;103245.16;5027453;28;20034;-57
2023/01/22 03:35:47;;;;;;;3.22;2.30;;;;;;;16.47;40.63;103245.16;5027214;28;20049;-57
2023/01/22 03:38:12;;;;;;;3.10;2.28;;;;;;;16.44;40.63;103237.31;5027263;28;20510;-57
2023/01/22 03:40:37;;;;;;;2.42;2.22;;;;;;;16.45;40.70;103247.94;5027309;28;20049;-57
2023/01/22 03:43:02;;;;;;;3.35;2.10;;;;;;;16.46;40.82;103236.25;5027476;28;20041;-54
2023/01/22 03:45:28;;;;;;;2.47;2.08;;;;;;;16.46;40.66;103240.75;5027503;28;20560;-55
2023/01/22 03:47:53;;;;;;;2.67;2.47;;;;;;;16.45;40.44;103229.16;5027213;28;20032;-57
2023/01/22 03:50:19;;;;;;;2.88;2.67;;;;;;;16.47;40.88;103243.34;5027361;28;20026;-56
2023/01/22 03:52:44;;;;;;;2.90;2.47;;;;;;;16.46;40.57;103236.25;5025722;28;20372;-56
2023/01/22 03:55:09;;;;;;;2.50;2.30;;;;;;;16.47;40.88;103239.78;5027472;28;20025;-56
2023/01/22 03:57:34;;;;;;;2.33;2.10;;;;;;;16.45;40.75;103239.91;5027334;28;20082;-57
2023/01/22 04:00:00;;;;;;;2.22;2.03;;;;;;;16.44;40.72;103237.31;5027396;28;20041;-56
2023/01/22 04:02:27;;;;;;;2.55;2.35;;;;;;;16.45;40.67;103253.31;5026964;28;20037;-52
2023/01/22 04:04:52;;;;;;;2.97;2.30;;;;;;;16.46;40.69;103251.50;5026571;28;20030;-56
2023/01/22 04:07:17;;;;;;;2.50;2.30;;;;;;;16.46;40.83;103251.50;5026851;28;20030;-56
2023/01/22 04:09:42;;;;;;;2.30;2.05;;;;;;;16.45;40.58;103247.09;5026379;28;20549;-57
2023/01/22 04:12:08;;;;;;;2.42;2.20;;;;;;;16.46;40.70;103249.66;5026789;28;20049;-57
2023/01/22 04:14:33;;;;;;;2.58;2.35;;;;;;;16.45;40.67;103252.47;5026882;28;20029;-56
2023/01/22 04:16:58;;;;;;;2.33;1.92;;;;;;;16.45;40.68;103247.09;5026664;28;20026;-58
2023/01/22 04:19:23;;;;;;;2.67;2.47;;;;;;;16.46;40.58;103249.66;5026686;28;20556;-57
2023/01/22 04:21:49;;;;;;;2.40;2.00;;;;;;;16.46;40.72;103241.63;5026546;28;20026;-55
2023/01/22 04:24:14;;;;;;;2.38;2.13;;;;;;;16.45;40.66;103239.03;5026656;28;20028;-57
2023/01/22 04:26:39;;;;;;;2.38;2.17;;;;;;;16.46;40.71;103236.25;5026633;28;20026;-56
2023/01/22 04:29:05;;;;;;;2.53;2.17;;;;;;;16.43;40.58;103228.38;5026398;28;20034;-57
2023/01/22 04:31:30;;;;;;;2.38;2.15;;;;;;;16.46;40.64;103243.44;5026553;28;20087;-57
2023/01/22 04:33:55;;;;;;;2.58;2.15;;;;;;;16.45;40.52;103234.53;5026139;28;20034;-57
2023/01/22 04:36:20;;;;;;;2.00;1.80;;;;;;;16.44;40.74;103237.31;5026570;28;20053;-57
2023/01/22 04:38:46;;;;;;;2.60;2.40;;;;;;;16.46;40.66;103240.75;5025334;28;20072;-54
2023/01/22 04:41:11;;;;;;;2.42;2.10;;;;;;;16.46;40.56;103248.81;5026126;28;20046;-55
2023/01/22 04:43:36;;;;;;;2.33;1.92;;;;;;;16.45;40.64;103236.34;5025984;28;20160;-58
2023/01/22 04:46:02;;;;;;;2.13;1.92;;;;;;;16.44;40.73;103240.88;5026165;28;20030;-57
2023/01/22 04:48:27;;;;;;;2.35;2.10;;;;;;;16.45;40.76;103242.59;5025941;28;20026;-57
2023/01/22 04:50:52;;;;;;;1.98;1.88;;;;;;;16.46;40.58;103243.44;5026016;28;20074;-57
2023/01/22 04:53:17;;;;;;;2.58;2.17;;;;;;;16.46;40.66;103243.44;5025933;28;20093;-57
2023/01/22 04:55:43;;;;;;;3.00;1.90;;;;;;;16.45;40.73;103242.59;5026097;28;20025;-57
2023/01/22 04:58:08;;;;;;;2.13;1.90;;;;;;;16.37;40.58;103226.09;5025755;28;20026;-57
2023/01/22 05:00:33;;;;;;;2.28;2.00;;;;;;;16.46;40.65;103236.25;5025957;28;20025;-57
2023/01/22 05:03:00;;;;;;;2.17;1.88;;;;;;;16.45;40.63;103236.34;5025713;28;20029;-57
2023/01/22 05:05:26;;;;;;;2.10;1.88;;;;;;;16.39;40.68;103220.59;5025897;28;20037;-58
2023/01/22 05:07:52;;;;;;;2.38;2.00;;;;;;;16.44;40.57;103232.81;5025527;28;20025;-58
2023/01/22 05:10:17;;;;;;;3.20;1.90;;;;;;;16.44;40.63;103230.13;5025859;28;20049;-58
2023/01/22 05:12:43;;;;;;;2.03;1.83;;;;;;;16.44;40.53;103234.63;5023684;28;20463;-54
2023/01/22 05:15:09;;;;;;;3.08;2.38;;;;;;;16.45;40.65;103230.97;5021907;28;20037;-58
2023/01/22 05:17:34;;;;;;;2.22;1.80;;;;;;;16.44;40.60;103234.63;5022123;28;20022;-56
2023/01/22 05:19:59;;;;;;;2.00;1.80;;;;;;;16.45;40.41;103247.09;5012274;28;20100;-58
2023/01/22 05:22:24;;;;;;;2.03;1.83;;;;;;;16.45;40.66;103247.09;5022806;28;20026;-56
2023/01/22 05:24:50;;;;;;;2.55;2.25;;;;;;;16.44;40.59;103248.91;5024857;28;20091;-58
2023/01/22 05:27:15;;;;;;;2.35;1.70;;;;;;;16.44;40.50;103251.59;5015643;28;20030;-56
2023/01/22 05:29:40;;;;;;;2.58;1.88;;;;;;;16.45;40.57;103252.47;5019294;28;20049;-55
2023/01/22 05:32:05;;;;;;;2.03;1.83;;;;;;;16.45;40.70;103249.78;5013134;28;20545;-58
2023/01/22 05:34:31;;;;;;;3.30;2.10;;;;;;;16.43;40.64;103249.84;5011665;28;20030;-56
2023/01/22 05:36:56;;;;;;;2.00;1.80;;;;;;;16.44;40.54;103248.91;5019120;28;20053;-57
2023/01/22 05:39:21;;;;;;;2.47;2.10;;;;;;;16.45;40.64;103255.16;5015479;28;20537;-57
2023/01/22 05:41:47;;;;;;;2.28;1.70;;;;;;;16.45;40.52;103255.16;5010837;28;20048;-57
2023/01/22 05:44:12;;;;;;;2.10;1.75;;;;;;;16.46;40.57;103251.50;5015542;28;20030;-57
2023/01/22 05:46:38;;;;;;;1.90;1.63;;;;;;;16.45;40.46;103250.63;5019658;28;20037;-59
2023/01/22 05:49:04;;;;;;;1.70;1.60;;;;;;;16.45;40.51;103252.47;5018221;28;20026;-58
2023/01/22 05:51:29;;;;;;;1.73;1.60;;;;;;;16.44;40.31;103251.59;5017887;28;20394;-58
2023/01/22 05:53:54;;;;;;;2.17;1.83;;;;;;;16.45;40.74;103249.78;5010515;28;20109;-58
2023/01/22 05:56:19;;;;;;;2.35;1.70;;;;;;;16.45;40.59;103252.47;5024905;28;20033;-58
2023/01/22 05:58:45;;;;;;;1.60;1.50;;;;;;;16.43;40.52;103249.84;5024599;28;20869;-57
2023/01/22 06:01:10;;;;;;;2.20;1.60;;;;;;;16.38;40.57;103237.69;5024829;28;20026;-56
2023/01/22 06:03:36;;;;;;;1.77;1.63;;;;;;;16.43;40.65;103255.22;5023912;28;20053;-58
2023/01/22 06:06:07;;;;;;;1.73;1.63;;;;;;;16.45;40.60;103253.31;5024095;28;20026;-55
2023/01/22 06:08:33;;;;;;;2.85;1.80;;;;;;;16.39;40.61;103236.72;5021822;28;20022;-57
2023/01/22 06:10:59;;;;;;;2.13;1.60;;;;;;;16.45;40.57;103247.94;5015951;28;20029;-54
2023/01/22 06:13:25;;;;;;;1.90;1.70;;;;;;;16.44;40.61;103251.59;5012864;28;20472;-58
2023/01/22 06:15:52;;;;;;;1.70;1.60;;;;;;;16.44;40.65;103246.22;5021179;28;20022;-57
2023/01/22 06:18:18;;;;;;;1.60;1.50;;;;;;;16.44;40.59;103248.06;5020475;28;20081;-53
2023/01/22 06:20:43;;;;;;;1.77;1.67;;;;;;;16.40;40.60;103238.47;5017946;28;20132;-56
2023/01/22 06:23:08;;;;;;;1.63;1.40;;;;;;;16.44;40.63;103248.06;5024543;28;20015;-54
2023/01/22 06:25:33;;;;;;;1.50;1.40;;;;;;;16.43;40.64;103247.16;5023718;28;20030;-57
2023/01/22 06:27:59;;;;;;;1.80;1.70;;;;;;;16.43;40.42;103252.53;5025700;28;20057;-56
2023/01/22 06:30:24;;;;;;;1.75;1.65;;;;;;;16.43;40.60;103247.16;5020967;28;20030;-55
2023/01/22 06:32:53;;;;;;;1.85;1.75;;;;;;;16.44;40.59;103251.59;5016948;28;20030;-53
2023/01/22 06:35:18;;;;;;;1.60;1.50;;;;;;;16.36;40.72;103220.81;5022417;28;20022;-59
2023/01/22 06:37:43;;;;;;;1.50;1.40;;;;;;;16.43;40.65;103241.78;5025044;28;20034;-57
2023/01/22 06:40:09;;;;;;;2.20;1.83;;;;;;;16.43;40.54;103233.75;5030376;28;20072;-58
2023/01/22 06:42:38;;;;;;;1.77;1.50;;;;;;;16.42;40.41;103237.41;5001168;28;20395;-57
2023/01/22 06:45:03;;;;;;;2.42;1.88;;;;;;;16.41;40.50;103242.88;5011025;28;20105;-55
2023/01/22 06:47:29;;;;;;;2.45;1.73;;;;;;;16.41;40.42;103254.47;5021593;28;20383;-56
2023/01/22 06:49:55;;;;;;;1.70;1.60;;;;;;;16.42;40.60;103244.59;5028107;28;20076;-57
2023/01/22 06:52:20;;;;;;;2.45;1.80;;;;;;;16.25;40.64;103227.69;5010878;28;20026;-56
2023/01/22 06:54:46;;;;;;;2.00;1.80;;;;;;;16.42;40.50;103260.69;5024605;28;20054;-57
2023/01/22 06:57:11;;;;;;;2.15;1.95;;;;;;;16.42;40.42;103269.63;5017618;28;20029;-57
2023/01/22 06:59:36;;;;;;;2.30;2.05;;;;;;;16.42;40.50;103249.97;5018292;28;20037;-53
2023/01/22 07:02:01;;;;;;;2.17;1.98;;;;;;;16.41;40.67;103265.22;5025010;28;20042;-57
2023/01/22 07:04:27;;;;;;;2.10;2.00;;;;;;;16.34;40.71;103249.56;5012970;28;20049;-56
2023/01/22 07:06:52;;;;;;;2.40;2.20;;;;;;;16.40;40.74;103257.25;5024803;28;20095;-56
2023/01/22 07:09:17;;;;;;;2.03;1.92;;;;;;;16.40;40.69;103266.19;5020100;28;20040;-55
2023/01/22 07:11:42;;;;;;;2.22;2.03;;;;;;;16.40;40.60;103266.19;4998862;28;20038;-53
2023/01/22 07:14:08;;;;;;;2.28;2.08;;;;;;;16.40;40.93;103259.94;5024464;28;20077;-53
2023/01/22 07:16:33;;;;;;;2.65;2.45;;;;;;;16.37;40.98;103252.94;5021917;28;20040;-55
2023/01/22 07:18:59;;;;;;;2.70;2.50;;;;;;;16.40;40.94;103259.94;5028356;28;20037;-57
2023/01/22 07:21:25;;;;;;;2.70;2.45;;;;;;;16.42;41.12;103256.19;5025123;28;20028;-55
2023/01/22 07:23:51;;;;;;;3.55;2.50;;;;;;;16.43;41.17;103259.72;5020965;28;20041;-57
2023/01/22 07:26:16;;;;;;;4.50;2.20;;;;;;;16.44;41.10;103266.84;5025644;28;20018;-55
2023/01/22 07:28:42;;;;;;;2.88;2.60;;;;;;;16.44;41.25;103261.50;5015685;28;20014;-53
2023/01/22 07:31:09;;;;;;;3.30;2.50;;;;;;;16.42;41.21;103261.56;5022082;28;20017;-57
2023/01/22 07:33:34;;;;;;;3.58;2.50;;;;;;;16.44;41.73;103266.84;5023602;28;20061;-56
2023/01/22 07:35:59;;;;;;;2.30;2.08;;;;;;;16.44;42.21;103270.41;5024762;28;20029;-54
2023/01/22 07:38:28;;;;;;;2.72;2.50;;;;;;;16.47;42.08;103272.88;5016127;28;20021;-57
2023/01/22 07:40:58;;;;;;;2.78;2.30;;;;;;;16.47;41.92;103274.69;5020287;28;20050;-55
2023/01/22 07:43:23;;;;;;;3.92;2.42;;;;;;;16.48;42.12;103269.25;5022865;28;20030;-55
2023/01/22 07:45:49;;;;;;;3.83;2.40;;;;;;;16.50;42.20;103278.06;5026523;28;20037;-57
2023/01/22 07:48:14;;;;;;;4.75;2.67;;;;;;;16.52;42.04;103274.41;5024020;28;20388;-57
2023/01/22 07:50:39;;;;;;;2.97;2.78;;;;;;;16.52;42.24;103271.72;5024376;28;20040;-52
2023/01/22 07:53:06;;;;;;;4.28;2.20;;;;;;;16.53;42.40;103279.72;5023693;28;20041;-56
2023/01/22 07:55:31;;;;;;;2.72;2.53;;;;;;;16.51;42.33;103284.28;5006871;28;20670;-54
2023/01/22 07:57:58;;;;;;;2.55;2.35;;;;;;;16.54;42.51;103285.94;5025305;28;20026;-57
2023/01/22 08:00:24;;;;;;;2.45;2.25;;;;;;;16.50;42.37;103279.88;5025494;28;20061;-55
2023/01/22 08:02:49;;;;;;;2.45;2.25;;;;;;;16.53;42.48;103276.16;5026373;28;20025;-55
2023/01/22 08:05:15;;;;;;;2.47;2.28;;;;;;;16.54;42.27;103286.78;5005504;28;20034;-54
2023/01/22 08:07:40;;;;;;;2.35;2.15;;;;;;;16.55;42.57;103276.91;5023993;28;20045;-57
2023/01/22 08:10:06;;;;;;;2.50;2.30;;;;;;;16.56;42.47;103289.38;5022610;28;20032;-58
2023/01/22 08:12:31;;;;;;;2.70;2.45;;;;;;;16.57;42.43;103291.97;5024908;28;20125;-56
2023/01/22 08:14:57;;;;;;;2.20;2.00;;;;;;;16.58;42.52;103299.06;5023858;28;20042;-55
2023/01/22 08:17:22;;;;;;;2.60;2.40;;;;;;;16.58;42.34;103298.22;5021314;28;20033;-57
2023/01/22 08:19:47;;;;;;;2.50;2.30;;;;;;;16.57;42.39;103289.31;5023418;28;20113;-56
2023/01/22 08:22:12;;;;;;;3.17;2.50;;;;;;;16.59;42.49;103289.19;5024410;28;20069;-55
2023/01/22 08:24:38;;;;;;;2.33;2.00;;;;;;;16.57;42.40;103283.94;5016315;28;20044;-51
2023/01/22 08:27:03;;;;;;;3.03;2.53;;;;;;;16.58;42.57;103292.84;5024529;28;20054;-57
2023/01/22 08:29:28;;;;;;;3.72;2.53;;;;;;;16.59;42.55;103300.78;5023244;28;20070;-54
2023/01/22 08:31:53;;;;;;;2.15;2.03;;;;;;;16.59;42.64;103292.75;5025260;28;20025;-57
2023/01/22 08:34:20;;;;;;;2.40;2.20;;;;;;;16.60;42.78;103296.28;5024651;28;20116;-54
2023/01/22 08:36:45;;;;;;;7.78;3.10;;;;;;;16.61;42.56;103289.94;5023115;28;20025;-57
2023/01/22 08:39:12;;;;;;;2.45;2.25;;;;;;;16.60;42.62;103285.53;5023006;28;20117;-56
2023/01/22 08:41:37;;;;;;;2.65;2.45;;;;;;;16.60;42.56;103285.53;5021687;28;20106;-55
2023/01/22 08:44:03;;;;;;;2.50;2.30;;;;;;;16.60;42.57;103283.72;5005861;28;20034;-53
2023/01/22 08:46:28;;;;;;;2.60;2.40;;;;;;;16.60;42.51;103272.97;5024074;28;20034;-55
2023/01/22 08:48:53;;;;;;;2.60;2.40;;;;;;;16.61;42.39;103281.88;5018257;28;20088;-53
2023/01/22 08:51:21;;;;;;;2.25;2.05;;;;;;;16.64;42.28;103290.63;5019853;28;20029;-56
2023/01/22 08:53:46;;;;;;;2.50;2.30;;;;;;;16.67;42.22;103279.69;5018458;28;20036;-57
2023/01/22 08:56:12;;;;;;;2.13;1.90;;;;;;;16.69;42.12;103293.91;5017821;28;20121;-57
2023/01/22 08:58:37;;;;;;;3.30;2.10;;;;;;;16.71;41.98;103299.19;5023362;28;20041;-57
2023/01/22 09:01:02;;;;;;;3.25;2.20;;;;;;;16.72;41.89;103309.84;5024618;28;20057;-54
2023/01/22 09:03:28;;;;;;;2.83;2.20;;;;;;;16.75;41.75;103308.81;5024163;28;20032;-53
2023/01/22 09:05:53;;;;;;;2.10;1.88;;;;;;;16.76;41.73;103304.28;5022260;28;20027;-54
2023/01/22 09:08:20;;;;;;;1.95;1.83;;;;;;;16.77;41.77;103295.25;5022340;28;20086;-57
2023/01/22 09:10:45;;;;;;;2.50;2.30;;;;;;;16.78;41.61;103281.75;5022046;28;20077;-54
2023/01/22 09:13:11;;;;;;;2.10;1.90;;;;;;;16.77;41.70;103290.75;5022821;28;20064;-54
2023/01/22 09:15:36;;;;;;;2.25;2.00;;;;;;;16.78;41.53;103303.25;5022503;28;20030;-56
2023/01/22 09:18:01;;;;;;;2.95;2.03;;;;;;;16.79;41.44;103294.22;5022254;28;20025;-56
2023/01/22 09:20:27;;;;;;;2.35;2.15;;;;;;;16.70;41.59;103289.41;5005686;28;20025;-55
2023/01/22 09:22:52;;;;;;;2.22;1.90;;;;;;;16.81;41.35;103296.81;5013000;28;20041;-55
2023/01/22 09:25:19;;;;;;;2.28;2.03;;;;;;;16.80;41.29;103306.69;4994608;28;20024;-57
2023/01/22 09:27:44;;;;;;;2.42;2.22;;;;;;;16.81;41.25;103308.41;5015101;28;20018;-52
2023/01/22 09:30:11;;;;;;;3.17;2.15;;;;;;;16.83;41.33;103311.03;5012974;28;20054;-51
2023/01/22 09:32:36;;;;;;;2.40;2.20;;;;;;;16.83;41.37;103294.91;5021475;28;20025;-50
2023/01/22 09:35:02;;;;;;;1.98;1.88;;;;;;;16.85;41.16;103306.41;5023530;28;20034;-55
2023/01/22 09:37:27;;;;;;;1.98;1.80;;;;;;;16.86;41.26;103308.13;5016165;28;20021;-50
2023/01/22 09:39:52;;;;;;;2.45;2.25;;;;;;;16.87;40.98;103320.63;5016044;28;20052;-51
2023/01/22 09:42:22;;;;;;;2.42;1.98;;;;;;;16.87;41.07;103317.94;5020091;28;20034;-53
2023/01/22 09:44:51;;;;;;;2.53;2.33;;;;;;;16.89;41.01;103326.75;5001312;28;20093;-50
2023/01/22 09:47:23;;;;;;;2.63;2.28;;;;;;;16.88;40.96;103323.19;4998961;28;20108;-52
2023/01/22 09:49:56;;;;;;;1.95;1.80;;;;;;;16.90;40.96;103331.16;5002272;28;20022;-51
2023/01/22 09:52:25;;;;;;;2.10;1.90;;;;;;;16.90;41.25;103332.00;5015055;28;20014;-56
2023/01/22 09:54:50;;;;;;;1.80;1.70;;;;;;;16.91;41.00;103331.06;5002912;28;20018;-55
2023/01/22 09:57:16;;;;;;;4.53;2.80;;;;;;;16.91;40.89;103330.22;5021838;28;20064;-51
2023/01/22 09:59:50;;;;;;;3.05;1.98;;;;;;;16.92;40.89;103340.00;5005814;28;20040;-51
2023/01/22 10:02:28;;;;;;;2.05;1.90;;;;;;;16.93;40.99;103318.38;4994035;28;20034;-53
2023/01/22 10:05:00;;;;;;;2.13;1.90;;;;;;;16.95;40.92;103318.31;5020176;28;20029;-53
2023/01/22 10:07:50;;;;;;;2.63;2.42;;;;;;;16.95;40.90;103326.38;5023818;28;20049;-51
2023/01/22 10:10:20;;;;;;;1.80;1.65;;;;;;;16.98;40.88;103323.47;4985033;28;20038;-54
2023/01/22 10:13:20;;;;;;;2.10;1.90;;;;;;;16.96;40.92;103320.88;5015112;28;20029;-57
2023/01/22 10:15:51;;;;;;;2.40;2.20;;;;;;;16.98;40.86;103326.16;5009654;28;20045;-56
2023/01/22 10:18:25;;;;;;;2.40;2.20;;;;;;;16.97;40.99;103319.91;5017098;28;20458;-58
2023/01/22 10:20:52;;;;;;;2.67;2.30;;;;;;;17.00;40.88;103326.94;5019040;28;20067;-57
2023/01/22 10:23:20;;;;;;;1.88;1.73;;;;;;;17.03;40.89;103328.53;5005294;28;20105;-55
2023/01/22 10:25:46;;;;;;;9.75;2.83;;;;;;;17.04;40.74;103328.47;5010425;28;20022;-57
2023/01/22 10:28:11;;;;;;;2.10;1.88;;;;;;;17.04;40.77;103320.41;5019250;28;20121;-58
2023/01/22 10:30:48;;;;;;;2.30;1.90;;;;;;;17.04;41.01;103314.16;4995041;28;20057;-56
2023/01/22 10:33:20;;;;;;;2.08;1.80;;;;;;;17.04;40.96;103312.34;5007846;28;20052;-58
2023/01/22 10:35:47;;;;;;;5.03;2.72;;;;;;;17.03;40.68;103305.22;5007348;28;20553;-58
2023/01/22 10:38:29;;;;;;;2.17;1.98;;;;;;;17.07;40.74;103311.25;5008335;28;20100;-58
2023/01/22 10:40:59;;;;;;;2.45;1.90;;;;;;;17.08;40.66;103310.31;5015551;28;20086;-58
2023/01/22 10:43:35;;;;;;;1.92;1.83;;;;;;;17.08;40.52;103304.94;5020473;28;20026;-56
2023/01/22 10:46:04;;;;;;;4.65;2.30;;;;;;;17.10;40.66;103305.69;5020501;28;20038;-58
2023/01/22 10:48:30;;;;;;;3.20;2.60;;;;;;;17.05;40.62;103300.63;5022998;28;20038;-53
2023/01/22 10:51:16;;;;;;;3.92;2.95;;;;;;;17.07;40.36;103305.88;5001888;28;20053;-58
2023/01/22 10:53:47;;;;;;;10.93;6.60;;;;;;;17.08;40.96;103302.25;5019240;28;20038;-54
2023/01/22 10:56:25;;;;;;;10.43;6.25;;;;;;;17.06;41.40;103294.28;5016622;28;20025;-58
2023/01/22 10:58:50;;;;;;;10.30;5.90;;;;;;;17.07;41.51;103295.13;5016341;28;20022;-55
2023/01/22 11:01:25;;;;;;;9.20;5.97;;;;;;;17.08;41.69;103296.88;5020380;28;20034;-58
2023/01/22 11:03:51;;;;;;;10.25;6.80;;;;;;;17.05;41.93;103297.06;5001970;28;20052;-56
2023/01/22 11:06:24;;;;;;;9.13;6.50;;;;;;;17.07;41.77;103298.69;5006148;28;20478;-57
2023/01/22 11:09:13;;;;;;;8.07;5.90;;;;;;;17.07;41.97;103296.00;5001823;28;20022;-57
2023/01/22 11:11:44;;;;;;;8.98;6.30;;;;;;;17.09;41.88;103298.59;5001261;28;20053;-57
2023/01/22 11:14:17;;;;;;;9.38;6.50;;;;;;;17.07;41.91;103295.13;5021314;28;20026;-55
2023/01/22 11:16:46;;;;;;;9.88;5.72;;;;;;;17.07;41.96;103292.44;5002275;28;20026;-57
2023/01/22 11:19:14;;;;;;;9.73;6.60;;;;;;;17.10;41.96;103297.63;5006518;28;20101;-58
2023/01/22 11:21:44;;;;;;;11.17;7.13;;;;;;;17.10;41.91;103292.25;5025372;28;20051;-58
2023/01/22 11:24:17;;;;;;;9.20;6.55;;;;;;;17.10;41.94;103292.25;5008120;28;20022;-55
2023/01/22 11:27:01;;;;;;;10.27;6.68;;;;;;;17.10;42.17;103290.44;5005672;28;20033;-58
2023/01/22 11:29:36;;;;;;;10.25;6.55;;;;;;;17.08;42.10;103284.31;5022047;28;20055;-58
2023/01/22 11:32:35;;;;;;;9.85;5.95;;;;;;;17.09;41.92;103290.53;5001595;28;20015;-56